createdAt,value
2023-02-11T09:09:25.875Z,96960.00
2023-02-11T09:10:25.869Z,96960.00
2023-02-11T09:12:25.876Z,96958.00
2023-02-11T09:13:25.881Z,96964.00
2023-02-11T09:14:25.885Z,96964.00
2023-02-11T09:15:25.897Z,96968.00
2023-02-11T09:16:25.978Z,96973.00
2023-02-11T09:17:25.907Z,96973.00
2023-02-11T09:18:25.912Z,96971.00
2023-02-11T09:19:25.936Z,96968.00
2023-02-11T09:20:25.935Z,96964.00
2023-02-11T09:21:25.947Z,96962.00
2023-02-11T09:23:25.938Z,96958.00
2023-02-11T09:24:26.019Z,96960.00
2023-02-11T09:25:25.965Z,96960.00
2023-02-11T09:26:25.952Z,96962.00
2023-02-11T09:27:25.989Z,96971.00
2023-02-11T09:28:26.088Z,96973.00
2023-02-11T09:29:26.014Z,96971.00
2023-02-11T09:30:25.987Z,96968.00
2023-02-11T09:31:26.113Z,96966.00
2023-02-11T09:32:25.998Z,96964.00
2023-02-11T09:33:25.994Z,96962.00
2023-02-11T09:34:26.007Z,96964.00
2023-02-11T09:35:26.014Z,96966.00
2023-02-11T09:36:26.014Z,96968.00
2023-02-11T09:37:26.025Z,96968.00
2023-02-11T09:38:26.016Z,96966.00
2023-02-11T09:39:26.022Z,96962.00
2023-02-11T09:40:26.025Z,96958.00
2023-02-11T09:41:26.033Z,96954.00
2023-02-11T09:42:26.034Z,96950.00
2023-02-11T09:43:26.070Z,96946.00
2023-02-11T09:44:26.056Z,96944.00
2023-02-11T09:45:26.085Z,96940.00
2023-02-11T09:46:26.128Z,96940.00
2023-02-11T09:47:26.065Z,96940.00
2023-02-11T09:48:26.071Z,96940.00
2023-02-11T09:49:26.067Z,96930.00
2023-02-11T09:50:26.072Z,96928.00
2023-02-11T09:51:26.078Z,96926.00
2023-02-11T09:52:26.084Z,96928.00
2023-02-11T09:53:26.084Z,96938.00
2023-02-11T09:54:26.084Z,96930.00
2023-02-11T09:55:26.091Z,96930.00
2023-02-11T09:56:26.101Z,96938.00
2023-02-11T09:57:28.956Z,96938.00
2023-02-11T09:58:26.114Z,96938.00
2023-02-11T09:59:26.156Z,96930.00
2023-02-11T10:00:26.125Z,96928.00
2023-02-11T10:01:26.208Z,96926.00
2023-02-11T10:02:26.131Z,96926.00
2023-02-11T10:03:26.137Z,96928.00
2023-02-11T10:04:26.218Z,96930.00
2023-02-11T10:05:26.160Z,96930.00
2023-02-11T10:06:26.156Z,96930.00
2023-02-11T10:07:26.146Z,96940.00
2023-02-11T10:08:26.147Z,96942.00
2023-02-11T10:09:26.153Z,96942.00
2023-02-11T10:10:26.162Z,96940.00
2023-02-11T10:11:31.881Z,96930.00
2023-02-11T10:12:26.161Z,96938.00
2023-02-11T10:13:26.166Z,96938.00
2023-02-11T10:14:26.165Z,96938.00
2023-02-11T10:15:26.252Z,96938.00
2023-02-11T10:16:26.662Z,96930.00
2023-02-11T10:17:26.166Z,96930.00
2023-02-11T10:18:26.157Z,96938.00
2023-02-11T10:19:26.168Z,96940.00
2023-02-11T10:20:26.169Z,96942.00
2023-02-11T10:21:26.170Z,96940.00
2023-02-11T10:22:26.185Z,96940.00
2023-02-11T10:23:26.179Z,96940.00
2023-02-11T10:24:26.179Z,96938.00
2023-02-11T10:25:26.196Z,96930.00
2023-02-11T10:26:26.187Z,96928.00
2023-02-11T10:27:26.199Z,96926.00
2023-02-11T10:28:26.320Z,96930.00
2023-02-11T10:29:26.190Z,96926.00
2023-02-11T10:30:26.224Z,96926.00
2023-02-11T10:31:26.358Z,96924.00
2023-02-11T10:32:26.206Z,96922.00
2023-02-11T10:33:26.212Z,96920.00
2023-02-11T10:34:26.214Z,96920.00
2023-02-11T10:35:26.215Z,96912.00
2023-02-11T10:36:26.222Z,96908.00
2023-02-11T10:37:26.224Z,96907.00
2023-02-11T10:38:26.230Z,96907.00
2023-02-11T10:39:26.237Z,96907.00
2023-02-11T10:40:26.352Z,96912.00
2023-02-11T10:41:26.236Z,96914.00
2023-02-11T10:42:26.237Z,96914.00
2023-02-11T10:43:26.253Z,96912.00
2023-02-11T10:44:26.261Z,96910.00
2023-02-11T10:45:26.258Z,96910.00
2023-02-11T10:46:26.283Z,96908.00
2023-02-11T10:47:26.300Z,96908.00
2023-02-11T10:48:26.280Z,96905.00
2023-02-11T10:49:26.276Z,96905.00
2023-02-11T10:50:26.274Z,96903.00
2023-02-11T10:51:26.280Z,96907.00
2023-02-11T10:52:27.209Z,96907.00
2023-02-11T10:53:26.289Z,96905.00
2023-02-11T10:54:26.294Z,96903.00
2023-02-11T10:55:26.296Z,96897.00
2023-02-11T10:56:26.296Z,96891.00
2023-02-11T10:57:26.325Z,96891.00
2023-02-11T10:58:26.307Z,96889.00
2023-02-11T10:59:26.319Z,96889.00
2023-02-11T11:00:26.322Z,96891.00
2023-02-11T11:01:26.391Z,96895.00
2023-02-11T11:02:26.324Z,96897.00
2023-02-11T11:03:26.349Z,96897.00
2023-02-11T11:04:26.384Z,96899.00
2023-02-11T11:05:26.341Z,96897.00
2023-02-11T11:06:26.337Z,96895.00
2023-02-11T11:07:26.356Z,96901.00
2023-02-11T11:08:27.268Z,96901.00
2023-02-11T11:09:26.354Z,96901.00
2023-02-11T11:10:26.367Z,96895.00
2023-02-11T11:11:26.399Z,96891.00
2023-02-11T11:12:26.368Z,96889.00
2023-02-11T11:13:26.351Z,96885.00
2023-02-11T11:14:26.363Z,96883.00
2023-02-11T11:15:26.376Z,96881.00
2023-02-11T11:16:26.418Z,96879.00
2023-02-11T11:17:26.380Z,96875.00
2023-02-11T11:18:26.349Z,96871.00
2023-02-11T11:19:26.385Z,96871.00
2023-02-11T11:20:26.365Z,96869.00
2023-02-11T11:21:26.355Z,96865.00
2023-02-11T11:22:26.388Z,96867.00
2023-02-11T11:23:26.366Z,96863.00
2023-02-11T11:24:27.949Z,96863.00
2023-02-11T11:25:27.446Z,96861.00
2023-02-11T11:26:26.507Z,96863.00
2023-02-11T11:27:26.528Z,96861.00
2023-02-11T11:28:26.637Z,96859.00
2023-02-11T11:29:26.522Z,96853.00
2023-02-11T11:30:26.528Z,96853.00
2023-02-11T11:31:26.698Z,96852.00
2023-02-11T11:32:26.559Z,96853.00
2023-02-11T11:33:26.527Z,96852.00
2023-02-11T11:34:26.528Z,96850.00
2023-02-11T11:35:26.555Z,96848.00
2023-02-11T11:36:26.536Z,96846.00
2023-02-11T11:37:26.574Z,96848.00
2023-02-11T11:38:26.533Z,96848.00
2023-02-11T11:39:26.532Z,96840.00
2023-02-11T11:40:26.532Z,96838.00
2023-02-11T11:41:26.531Z,96834.00
2023-02-11T11:42:26.545Z,96834.00
2023-02-11T11:43:26.564Z,96830.00
2023-02-11T11:44:26.546Z,96826.00
2023-02-11T11:45:26.544Z,96826.00
2023-02-11T11:46:26.696Z,96824.00
2023-02-11T11:47:26.568Z,96824.00
2023-02-11T11:48:26.545Z,96822.00
2023-02-11T11:49:26.542Z,96822.00
2023-02-11T11:50:26.547Z,96818.00
2023-02-11T11:51:26.622Z,96808.00
2023-02-11T11:52:26.565Z,96812.00
2023-02-11T11:53:26.564Z,96810.00
2023-02-11T11:54:26.559Z,96808.00
2023-02-11T11:55:27.494Z,96808.00
2023-02-11T11:56:26.568Z,96812.00
2023-02-11T11:57:26.544Z,96812.00
2023-02-11T11:58:26.560Z,96814.00
2023-02-11T11:59:26.550Z,96812.00
2023-02-11T12:00:26.556Z,96812.00
2023-02-11T12:01:26.553Z,96810.00
2023-02-11T12:02:26.683Z,96806.00
2023-02-11T12:03:26.703Z,96805.00
2023-02-11T12:04:26.560Z,96801.00
2023-02-11T12:05:26.563Z,96799.00
2023-02-11T12:06:26.561Z,96799.00
2023-02-11T12:07:26.582Z,96797.00
2023-02-11T12:08:26.558Z,96797.00
2023-02-11T12:09:26.562Z,96795.00
2023-02-11T12:10:26.570Z,96795.00
2023-02-11T12:11:26.560Z,96795.00
2023-02-11T12:12:26.570Z,96799.00
2023-02-11T12:13:26.582Z,96799.00
2023-02-11T12:14:26.599Z,96795.00
2023-02-11T12:15:26.569Z,96793.00
2023-02-11T12:16:26.657Z,96795.00
2023-02-11T12:17:26.581Z,96793.00
2023-02-11T12:18:26.571Z,96795.00
2023-02-11T12:19:26.574Z,96799.00
2023-02-11T12:20:26.591Z,96797.00
2023-02-11T12:21:26.584Z,96801.00
2023-02-11T12:22:26.596Z,96801.00
2023-02-11T12:23:26.615Z,96801.00
2023-02-11T12:24:26.592Z,96799.00
2023-02-11T12:25:26.593Z,96799.00
2023-02-11T12:26:26.601Z,96799.00
2023-02-11T12:27:26.602Z,96797.00
2023-02-11T12:28:26.667Z,96795.00
2023-02-11T12:29:26.603Z,96799.00
2023-02-11T12:30:26.614Z,96801.00
2023-02-11T12:31:26.806Z,96799.00
2023-02-11T12:32:26.650Z,96793.00
2023-02-11T12:33:26.626Z,96795.00
2023-02-11T12:34:26.645Z,96795.00
2023-02-11T12:35:26.669Z,96795.00
2023-02-11T12:36:26.741Z,96793.00
2023-02-11T12:37:26.644Z,96789.00
2023-02-11T12:38:26.648Z,96789.00
2023-02-11T12:39:26.671Z,96787.00
2023-02-11T12:40:26.674Z,96787.00
2023-02-11T12:41:26.640Z,96785.00
2023-02-11T12:42:26.658Z,96787.00
2023-02-11T12:43:26.661Z,96787.00
2023-02-11T12:44:26.666Z,96787.00
2023-02-11T12:45:26.729Z,96785.00
2023-02-11T12:46:26.668Z,96783.00
2023-02-11T12:47:26.673Z,96783.00
2023-02-11T12:48:26.675Z,96779.00
2023-02-11T12:49:26.680Z,96779.00
2023-02-11T12:50:26.686Z,96779.00
2023-02-11T12:51:26.687Z,96781.00
2023-02-11T12:52:26.688Z,96781.00
2023-02-11T12:53:26.691Z,96779.00
2023-02-11T12:54:26.707Z,96779.00
2023-02-11T12:55:26.729Z,96779.00
2023-02-11T12:56:26.699Z,96775.00
2023-02-11T12:57:26.735Z,96775.00
2023-02-11T12:58:35.656Z,96773.00
2023-02-11T12:59:26.704Z,96773.00
2023-02-11T13:00:26.692Z,96773.00
2023-02-11T13:01:26.837Z,96771.00
2023-02-11T13:02:26.778Z,96773.00
2023-02-11T13:03:26.702Z,96769.00
2023-02-11T13:04:26.725Z,96771.00
2023-02-11T13:05:26.733Z,96769.00
2023-02-11T13:06:26.715Z,96769.00
2023-02-11T13:07:26.716Z,96767.00
2023-02-11T13:08:26.737Z,96763.00
2023-02-11T13:09:26.739Z,96759.00
2023-02-11T13:10:26.739Z,96757.00
2023-02-11T13:11:26.767Z,96755.00
2023-02-11T13:12:26.741Z,96753.00
2023-02-11T13:13:26.754Z,96751.00
2023-02-11T13:14:26.754Z,96751.00
2023-02-11T13:15:26.793Z,96750.00
2023-02-11T13:16:26.775Z,96750.00
2023-02-11T13:17:26.750Z,96746.00
2023-02-11T13:18:26.763Z,96748.00
2023-02-11T13:19:26.753Z,96744.00
2023-02-11T13:20:26.754Z,96744.00
2023-02-11T13:21:26.755Z,96742.00
2023-02-11T13:22:26.793Z,96742.00
2023-02-11T13:23:26.734Z,96744.00
2023-02-11T13:24:26.740Z,96744.00
2023-02-11T13:25:26.736Z,96742.00
2023-02-11T13:26:26.748Z,96744.00
2023-02-11T13:27:26.777Z,96744.00
2023-02-11T13:28:26.934Z,96746.00
2023-02-11T13:29:26.747Z,96746.00
2023-02-11T13:30:26.952Z,96748.00
2023-02-11T13:31:26.936Z,96744.00
2023-02-11T13:32:26.774Z,96744.00
2023-02-11T13:33:26.770Z,96744.00
2023-02-11T13:34:26.773Z,96742.00
2023-02-11T13:35:26.793Z,96742.00
2023-02-11T13:36:26.811Z,96746.00
2023-02-11T13:37:26.790Z,96744.00
2023-02-11T13:38:26.799Z,96744.00
2023-02-11T13:39:26.805Z,96744.00
2023-02-11T13:40:26.801Z,96744.00
2023-02-11T13:41:26.797Z,96744.00
2023-02-11T13:42:26.802Z,96742.00
2023-02-11T13:43:26.840Z,96742.00
2023-02-11T13:44:26.814Z,96740.00
2023-02-11T13:45:26.817Z,96738.00
2023-02-11T13:46:26.880Z,96736.00
2023-02-11T13:47:26.814Z,96734.00
2023-02-11T13:48:27.513Z,96734.00
2023-02-11T13:49:26.826Z,96730.00
2023-02-11T13:50:26.832Z,96730.00
2023-02-11T13:51:26.826Z,96732.00
2023-02-11T13:52:26.874Z,96732.00
2023-02-11T13:53:26.841Z,96730.00
2023-02-11T13:54:26.868Z,96732.00
2023-02-11T13:55:26.842Z,96734.00
2023-02-11T13:56:26.852Z,96732.00
2023-02-11T13:57:26.844Z,96734.00
2023-02-11T13:58:26.847Z,96728.00
2023-02-11T13:59:26.886Z,96730.00
2023-02-11T14:00:26.851Z,96728.00
2023-02-11T14:01:26.901Z,96730.00
2023-02-11T14:02:26.882Z,96732.00
2023-02-11T14:03:26.861Z,96728.00
2023-02-11T14:04:26.864Z,96728.00
2023-02-11T14:05:26.870Z,96722.00
2023-02-11T14:06:26.868Z,96724.00
2023-02-11T14:07:26.865Z,96726.00
2023-02-11T14:08:26.866Z,96724.00
2023-02-11T14:09:26.852Z,96724.00
2023-02-11T14:10:26.855Z,96720.00
2023-02-11T14:11:26.844Z,96722.00
2023-02-11T14:12:26.839Z,96724.00
2023-02-11T14:13:26.845Z,96720.00
2023-02-11T14:14:26.870Z,96722.00
2023-02-11T14:15:26.861Z,96720.00
2023-02-11T14:16:37.557Z,96716.00
2023-02-11T14:17:26.926Z,96714.00
2023-02-11T14:18:26.838Z,96712.00
2023-02-11T14:19:26.894Z,96714.00
2023-02-11T14:20:26.841Z,96708.00
2023-02-11T14:21:26.855Z,96708.00
2023-02-11T14:22:26.834Z,96706.00
2023-02-11T14:23:26.865Z,96708.00
2023-02-11T14:24:26.837Z,96708.00
2023-02-11T14:25:26.851Z,96706.00
2023-02-11T14:26:26.840Z,96708.00
2023-02-11T14:27:26.836Z,96706.00
2023-02-11T14:28:26.984Z,96703.00
2023-02-11T14:29:26.825Z,96703.00
2023-02-11T14:30:26.826Z,96701.00
2023-02-11T14:31:27.661Z,96697.00
2023-02-11T14:32:26.834Z,96695.00
2023-02-11T14:33:26.823Z,96697.00
2023-02-11T14:34:27.757Z,96697.00
2023-02-11T14:35:26.834Z,96697.00
2023-02-11T14:36:26.818Z,96701.00
2023-02-11T14:37:26.954Z,96701.00
2023-02-11T14:38:26.825Z,96703.00
2023-02-11T14:39:26.819Z,96706.00
2023-02-11T14:40:26.825Z,96706.00
2023-02-11T14:41:26.817Z,96704.00
2023-02-11T14:42:26.824Z,96703.00
2023-02-11T14:43:29.456Z,96701.00
2023-02-11T14:44:26.821Z,96704.00
2023-02-11T14:45:26.820Z,96701.00
2023-02-11T14:46:26.844Z,96701.00
2023-02-11T14:47:26.824Z,96697.00
2023-02-11T14:48:26.802Z,96703.00
2023-02-11T14:49:26.803Z,96701.00
2023-02-11T14:50:26.795Z,96704.00
2023-02-11T14:51:26.838Z,96701.00
2023-02-11T14:52:26.798Z,96701.00
2023-02-11T14:53:26.797Z,96697.00
2023-02-11T14:54:26.806Z,96697.00
2023-02-11T14:55:26.813Z,96695.00
2023-02-11T14:56:26.807Z,96693.00
2023-02-11T14:57:26.807Z,96691.00
2023-02-11T14:58:26.826Z,96685.00
2023-02-11T14:59:26.820Z,96687.00
2023-02-11T15:00:26.896Z,96685.00
2023-02-11T15:01:26.908Z,96687.00
2023-02-11T15:02:26.823Z,96687.00
2023-02-11T15:03:26.839Z,96689.00
2023-02-11T15:04:26.808Z,96689.00
2023-02-11T15:05:26.826Z,96687.00
2023-02-11T15:06:26.953Z,96687.00
2023-02-11T15:07:26.799Z,96691.00
2023-02-11T15:08:26.794Z,96689.00
2023-02-11T15:09:26.839Z,96691.00
2023-02-11T15:10:26.789Z,96689.00
2023-02-11T15:11:26.799Z,96691.00
2023-02-11T15:12:26.788Z,96697.00
2023-02-11T15:13:26.788Z,96699.00
2023-02-11T15:14:26.778Z,96701.00
2023-02-11T15:15:26.782Z,96701.00
2023-02-11T15:16:26.782Z,96699.00
2023-02-11T15:17:26.768Z,96699.00
2023-02-11T15:18:26.773Z,96699.00
2023-02-11T15:19:26.804Z,96703.00
2023-02-11T15:20:26.760Z,96701.00
2023-02-11T15:21:27.005Z,96703.00
2023-02-11T15:22:26.768Z,96706.00
2023-02-11T15:23:26.756Z,96710.00
2023-02-11T15:24:26.786Z,96710.00
2023-02-11T15:25:26.773Z,96708.00
2023-02-11T15:26:26.755Z,96710.00
2023-02-11T15:27:26.761Z,96708.00
2023-02-11T15:28:26.827Z,96710.00
2023-02-11T15:29:26.775Z,96714.00
2023-02-11T15:30:26.762Z,96712.00
2023-02-11T15:31:26.962Z,96716.00
2023-02-11T15:32:26.974Z,96716.00
2023-02-11T15:33:26.772Z,96718.00
2023-02-11T15:34:26.771Z,96720.00
2023-02-11T15:35:26.803Z,96720.00
2023-02-11T15:36:26.749Z,96720.00
2023-02-11T15:37:26.753Z,96722.00
2023-02-11T15:38:26.773Z,96718.00
2023-02-11T15:39:26.755Z,96724.00
2023-02-11T15:40:26.744Z,96720.00
2023-02-11T15:41:26.734Z,96720.00
2023-02-11T15:42:26.759Z,96724.00
2023-02-11T15:43:26.741Z,96724.00
2023-02-11T15:44:26.733Z,96724.00
2023-02-11T15:45:27.680Z,96724.00
2023-02-11T15:46:26.759Z,96724.00
2023-02-11T15:47:26.724Z,96726.00
2023-02-11T15:48:26.725Z,96726.00
2023-02-11T15:49:26.725Z,96726.00
2023-02-11T15:50:26.717Z,96724.00
2023-02-11T15:51:26.736Z,96724.00
2023-02-11T15:52:26.709Z,96724.00
2023-02-11T15:53:26.712Z,96724.00
2023-02-11T15:54:26.724Z,96724.00
2023-02-11T15:55:26.697Z,96724.00
2023-02-11T15:56:26.743Z,96722.00
2023-02-11T15:57:26.684Z,96726.00
2023-02-11T15:58:26.712Z,96728.00
2023-02-11T15:59:26.686Z,96726.00
2023-02-11T16:00:26.704Z,96730.00
2023-02-11T16:01:26.745Z,96726.00
2023-02-11T16:02:26.679Z,96726.00
2023-02-11T16:03:26.670Z,96726.00
2023-02-11T16:04:26.735Z,96724.00
2023-02-11T16:05:26.676Z,96726.00
2023-02-11T16:06:26.672Z,96726.00
2023-02-11T16:07:26.700Z,96726.00
2023-02-11T16:08:26.675Z,96728.00
2023-02-11T16:09:26.668Z,96726.00
2023-02-11T16:10:26.656Z,96728.00
2023-02-11T16:11:26.695Z,96728.00
2023-02-11T16:12:26.663Z,96728.00
2023-02-11T16:13:26.667Z,96728.00
2023-02-11T16:14:26.677Z,96728.00
2023-02-11T16:15:26.665Z,96728.00
2023-02-11T16:16:26.703Z,96726.00
2023-02-11T16:17:26.674Z,96724.00
2023-02-11T16:18:37.415Z,96724.00
2023-02-11T16:19:26.677Z,96728.00
2023-02-11T16:20:26.698Z,96730.00
2023-02-11T16:21:26.685Z,96732.00
2023-02-11T16:22:26.680Z,96734.00
2023-02-11T16:23:26.697Z,96730.00
2023-02-11T16:24:26.685Z,96734.00
2023-02-11T16:25:26.682Z,96736.00
2023-02-11T16:26:27.534Z,96738.00
2023-02-11T16:27:26.680Z,96740.00
2023-02-11T16:28:26.774Z,96740.00
2023-02-11T16:29:26.697Z,96740.00
2023-02-11T16:30:26.733Z,96744.00
2023-02-11T16:31:26.821Z,96746.00
2023-02-11T16:32:26.685Z,96748.00
2023-02-11T16:33:26.677Z,96751.00
2023-02-11T16:35:26.688Z,96751.00
2023-02-11T16:36:26.679Z,96750.00
2023-02-11T16:37:26.680Z,96753.00
2023-02-11T16:38:26.718Z,96751.00
2023-02-11T16:39:26.699Z,96753.00
2023-02-11T16:40:26.679Z,96751.00
2023-02-11T16:41:26.677Z,96753.00
2023-02-11T16:42:26.691Z,96753.00
2023-02-11T16:43:26.681Z,96753.00
2023-02-11T16:44:26.690Z,96757.00
2023-02-11T16:45:26.682Z,96757.00
2023-02-11T16:46:26.685Z,96757.00
2023-02-11T16:47:26.699Z,96757.00
2023-02-11T16:48:26.761Z,96761.00
2023-02-11T16:49:26.693Z,96759.00
2023-02-11T16:50:26.698Z,96757.00
2023-02-11T16:51:26.703Z,96759.00
2023-02-11T16:52:26.712Z,96761.00
2023-02-11T16:53:26.692Z,96765.00
2023-02-11T16:54:26.697Z,96767.00
2023-02-11T16:55:26.733Z,96767.00
2023-02-11T16:56:26.708Z,96767.00
2023-02-11T16:57:29.653Z,96767.00
2023-02-11T16:58:26.704Z,96767.00
2023-02-11T16:59:26.706Z,96769.00
2023-02-11T17:00:26.707Z,96769.00
2023-02-11T17:01:26.804Z,96767.00
2023-02-11T17:02:27.101Z,96769.00
2023-02-11T17:03:29.776Z,96767.00
2023-02-11T17:04:26.789Z,96769.00
2023-02-11T17:05:26.711Z,96771.00
2023-02-11T17:06:26.713Z,96775.00
2023-02-11T17:07:26.705Z,96777.00
2023-02-11T17:08:26.702Z,96775.00
2023-02-11T17:09:30.054Z,96775.00
2023-02-11T17:10:26.709Z,96773.00
2023-02-11T17:11:26.728Z,96777.00
2023-02-11T17:12:26.710Z,96779.00
2023-02-11T17:13:26.725Z,96777.00
2023-02-11T17:14:26.705Z,96777.00
2023-02-11T17:15:26.707Z,96777.00
2023-02-11T17:16:26.786Z,96777.00
2023-02-11T17:17:26.721Z,96779.00
2023-02-11T17:18:26.721Z,96777.00
2023-02-11T17:19:26.732Z,96779.00
2023-02-11T17:20:26.723Z,96781.00
2023-02-11T17:21:29.833Z,96781.00
2023-02-11T17:22:26.730Z,96783.00
2023-02-11T17:23:26.726Z,96787.00
2023-02-11T17:24:26.727Z,96789.00
2023-02-11T17:25:26.723Z,96789.00
2023-02-11T17:26:26.733Z,96791.00
2023-02-11T17:27:26.735Z,96793.00
2023-02-11T17:28:26.813Z,96795.00
2023-02-11T17:29:26.715Z,96795.00
2023-02-11T17:30:26.718Z,96795.00
2023-02-11T17:31:26.821Z,96795.00
2023-02-11T17:32:26.701Z,96793.00
2023-02-11T17:33:26.702Z,96793.00
2023-02-11T17:34:26.704Z,96793.00
2023-02-11T17:35:26.697Z,96797.00
2023-02-11T17:36:26.701Z,96797.00
2023-02-11T17:37:26.717Z,96801.00
2023-02-11T17:38:26.693Z,96803.00
2023-02-11T17:39:26.731Z,96806.00
2023-02-11T17:40:26.690Z,96805.00
2023-02-11T17:41:26.720Z,96805.00
2023-02-11T17:42:26.691Z,96803.00
2023-02-11T17:43:26.706Z,96805.00
2023-02-11T17:44:26.680Z,96803.00
2023-02-11T17:45:27.156Z,96805.00
2023-02-11T17:46:26.680Z,96805.00
2023-02-11T17:47:26.671Z,96805.00
2023-02-11T17:48:26.669Z,96805.00
2023-02-11T17:49:26.667Z,96803.00
2023-02-11T17:50:29.202Z,96803.00
2023-02-11T17:51:26.673Z,96805.00
2023-02-11T17:52:26.652Z,96803.00
2023-02-11T17:53:26.653Z,96801.00
2023-02-11T17:54:26.655Z,96803.00
2023-02-11T17:55:26.657Z,96801.00
2023-02-11T17:56:26.656Z,96801.00
2023-02-11T17:57:26.659Z,96803.00
2023-02-11T17:58:26.649Z,96805.00
2023-02-11T17:59:26.670Z,96805.00
2023-02-11T18:00:26.650Z,96806.00
2023-02-11T18:01:26.787Z,96808.00
2023-02-11T18:02:26.656Z,96810.00
2023-02-11T18:03:26.653Z,96806.00
2023-02-11T18:04:26.687Z,96808.00
2023-02-11T18:05:26.662Z,96805.00
2023-02-11T18:06:26.866Z,96806.00
2023-02-11T18:07:26.681Z,96805.00
2023-02-11T18:08:26.677Z,96805.00
2023-02-11T18:09:26.688Z,96806.00
2023-02-11T18:10:26.685Z,96808.00
2023-02-11T18:11:26.690Z,96808.00
2023-02-11T18:12:26.714Z,96814.00
2023-02-11T18:13:26.689Z,96816.00
2023-02-11T18:14:26.684Z,96814.00
2023-02-11T18:15:26.709Z,96820.00
2023-02-11T18:16:26.707Z,96820.00
2023-02-11T18:17:26.693Z,96826.00
2023-02-11T18:18:26.657Z,96828.00
2023-02-11T18:19:26.659Z,96828.00
2023-02-11T18:20:26.667Z,96832.00
2023-02-11T18:21:26.647Z,96832.00
2023-02-11T18:22:26.645Z,96834.00
2023-02-11T18:23:26.640Z,96836.00
2023-02-11T18:24:26.641Z,96832.00
2023-02-11T18:25:26.644Z,96834.00
2023-02-11T18:26:26.635Z,96834.00
2023-02-11T18:27:26.632Z,96832.00
2023-02-11T18:28:26.700Z,96832.00
2023-02-11T18:29:26.651Z,96832.00
2023-02-11T18:30:26.659Z,96830.00
2023-02-11T18:31:26.744Z,96830.00
2023-02-11T18:32:26.633Z,96832.00
2023-02-11T18:33:26.640Z,96832.00
2023-02-11T18:34:26.631Z,96832.00
2023-02-11T18:35:26.702Z,96830.00
2023-02-11T18:36:26.615Z,96832.00
2023-02-11T18:37:26.608Z,96832.00
2023-02-11T18:38:26.609Z,96836.00
2023-02-11T18:39:26.611Z,96832.00
2023-02-11T18:40:26.614Z,96832.00
2023-02-11T18:41:26.604Z,96830.00
2023-02-11T18:42:26.614Z,96830.00
2023-02-11T18:43:26.592Z,96832.00
2023-02-11T18:44:26.600Z,96834.00
2023-02-11T18:45:26.585Z,96834.00
2023-02-11T18:46:26.745Z,96836.00
2023-02-11T18:47:26.603Z,96834.00
2023-02-11T18:48:26.589Z,96832.00
2023-02-11T18:49:26.579Z,96836.00
2023-02-11T18:50:26.566Z,96836.00
2023-02-11T18:51:26.568Z,96834.00
2023-02-11T18:52:26.567Z,96836.00
2023-02-11T18:53:26.558Z,96838.00
2023-02-11T18:54:26.563Z,96840.00
2023-02-11T18:55:26.557Z,96844.00
2023-02-11T18:56:26.552Z,96848.00
2023-02-11T18:57:26.555Z,96844.00
2023-02-11T18:58:26.546Z,96844.00
2023-02-11T18:59:26.535Z,96842.00
2023-02-11T19:00:26.548Z,96842.00
2023-02-11T19:01:26.573Z,96842.00
2023-02-11T19:02:26.556Z,96842.00
2023-02-11T19:03:26.561Z,96840.00
2023-02-11T19:04:26.550Z,96836.00
2023-02-11T19:05:26.532Z,96838.00
2023-02-11T19:06:26.546Z,96838.00
2023-02-11T19:07:26.564Z,96834.00
2023-02-11T19:08:26.541Z,96840.00
2023-02-11T19:09:26.531Z,96842.00
2023-02-11T19:10:26.533Z,96842.00
2023-02-11T19:11:26.531Z,96840.00
2023-02-11T19:12:26.520Z,96844.00
2023-02-11T19:13:26.523Z,96844.00
2023-02-11T19:14:26.526Z,96844.00
2023-02-11T19:15:26.524Z,96846.00
2023-02-11T19:16:26.644Z,96850.00
2023-02-11T19:17:26.522Z,96852.00
2023-02-11T19:18:26.523Z,96853.00
2023-02-11T19:19:26.546Z,96852.00
2023-02-11T19:20:26.525Z,96853.00
2023-02-11T19:21:26.541Z,96850.00
2023-02-11T19:22:26.561Z,96852.00
2023-02-11T19:23:26.521Z,96857.00
2023-02-11T19:24:26.529Z,96859.00
2023-02-11T19:25:26.522Z,96857.00
2023-02-11T19:26:26.537Z,96863.00
2023-02-11T19:27:26.557Z,96861.00
2023-02-11T19:28:26.660Z,96859.00
2023-02-11T19:29:26.693Z,96861.00
2023-02-11T19:30:26.682Z,96861.00
2023-02-11T19:31:26.918Z,96861.00
2023-02-11T19:32:26.692Z,96861.00
2023-02-11T19:33:26.689Z,96863.00
2023-02-11T19:34:26.687Z,96863.00
2023-02-11T19:35:26.702Z,96863.00
2023-02-11T19:36:26.717Z,96861.00
2023-02-11T19:37:26.714Z,96859.00
2023-02-11T19:38:26.663Z,96861.00
2023-02-11T19:39:26.663Z,96865.00
2023-02-11T19:40:26.659Z,96867.00
2023-02-11T19:41:26.660Z,96867.00
2023-02-11T19:42:27.709Z,96869.00
2023-02-11T19:43:26.657Z,96869.00
2023-02-11T19:44:26.635Z,96863.00
2023-02-11T19:45:26.630Z,96863.00
2023-02-11T19:46:26.725Z,96859.00
2023-02-11T19:47:26.618Z,96859.00
2023-02-11T19:48:26.644Z,96857.00
2023-02-11T19:49:26.663Z,96857.00
2023-02-11T19:50:26.613Z,96859.00
2023-02-11T19:51:26.636Z,96857.00
2023-02-11T19:52:26.618Z,96857.00
2023-02-11T19:53:26.623Z,96857.00
2023-02-11T19:54:26.657Z,96855.00
2023-02-11T19:55:26.623Z,96857.00
2023-02-11T19:56:26.615Z,96859.00
2023-02-11T19:57:26.624Z,96859.00
2023-02-11T19:58:26.610Z,96861.00
2023-02-11T19:59:26.608Z,96863.00
2023-02-11T20:00:26.604Z,96865.00
2023-02-11T20:01:26.670Z,96869.00
2023-02-11T20:02:26.705Z,96865.00
2023-02-11T20:03:26.611Z,96867.00
2023-02-11T20:04:26.640Z,96867.00
2023-02-11T20:05:26.605Z,96867.00
2023-02-11T20:06:26.603Z,96861.00
2023-02-11T20:07:26.622Z,96861.00
2023-02-11T20:08:26.611Z,96861.00
2023-02-11T20:09:26.634Z,96861.00
2023-02-11T20:10:26.599Z,96861.00
2023-02-11T20:11:26.602Z,96865.00
2023-02-11T20:12:26.595Z,96865.00
2023-02-11T20:13:26.589Z,96867.00
2023-02-11T20:14:28.000Z,96867.00
2023-02-11T20:15:26.732Z,96867.00
2023-02-11T20:16:37.099Z,96867.00
2023-02-11T20:17:26.712Z,96865.00
2023-02-11T20:18:26.707Z,96865.00
2023-02-11T20:19:26.715Z,96869.00
2023-02-11T20:20:26.731Z,96869.00
2023-02-11T20:21:26.699Z,96871.00
2023-02-11T20:22:26.694Z,96873.00
2023-02-11T20:23:26.727Z,96877.00
2023-02-11T20:24:26.692Z,96875.00
2023-02-11T20:25:26.693Z,96877.00
2023-02-11T20:26:26.697Z,96877.00
2023-02-11T20:27:26.708Z,96877.00
2023-02-11T20:28:26.722Z,96877.00
2023-02-11T20:29:26.690Z,96877.00
2023-02-11T20:30:26.682Z,96877.00
2023-02-11T20:31:27.378Z,96879.00
2023-02-11T20:32:26.769Z,96877.00
2023-02-11T20:33:26.706Z,96881.00
2023-02-11T20:34:26.667Z,96881.00
2023-02-11T20:35:26.683Z,96881.00
2023-02-11T20:36:26.672Z,96881.00
2023-02-11T20:37:26.686Z,96883.00
2023-02-11T20:38:26.676Z,96885.00
2023-02-11T20:39:26.692Z,96885.00
2023-02-11T20:40:26.670Z,96889.00
2023-02-11T20:41:26.677Z,96889.00
2023-02-11T20:42:26.689Z,96887.00
2023-02-11T20:43:26.678Z,96885.00
2023-02-11T20:44:26.678Z,96885.00
2023-02-11T20:45:26.675Z,96881.00
2023-02-11T20:46:26.771Z,96883.00
2023-02-11T20:47:27.610Z,96885.00
2023-02-11T20:48:26.679Z,96885.00
2023-02-11T20:49:26.680Z,96885.00
2023-02-11T20:50:26.699Z,96883.00
2023-02-11T20:51:26.721Z,96881.00
2023-02-11T20:52:26.687Z,96879.00
2023-02-11T20:53:26.692Z,96877.00
2023-02-11T20:54:26.693Z,96879.00
2023-02-11T20:55:26.705Z,96879.00
2023-02-11T20:56:26.708Z,96879.00